createdAt,value
2023-05-21T00:01:21.412Z,21.84
2023-05-21T00:03:50.296Z,21.83
2023-05-21T00:06:17.668Z,21.82
2023-05-21T00:08:44.923Z,21.82
2023-05-21T00:11:11.972Z,21.81
2023-05-21T00:13:39.134Z,21.80
2023-05-21T00:16:06.731Z,21.80
2023-05-21T00:18:34.649Z,21.79
2023-05-21T00:21:02.101Z,21.76
2023-05-21T00:23:32.945Z,21.76
2023-05-21T00:26:00.355Z,21.74
2023-05-21T00:28:27.582Z,21.73
2023-05-21T00:30:54.688Z,21.72
2023-05-21T00:33:22.706Z,21.69
2023-05-21T00:35:49.708Z,21.68
2023-05-21T00:38:18.929Z,21.65
2023-05-21T00:40:46.166Z,21.63
2023-05-21T00:43:14.591Z,21.62
2023-05-21T00:45:46.842Z,21.61
2023-05-21T00:48:14.939Z,21.59
2023-05-21T00:50:42.513Z,21.58
2023-05-21T00:53:12.457Z,21.57
2023-05-21T00:55:40.429Z,21.54
2023-05-21T00:58:07.658Z,21.54
2023-05-21T01:00:36.074Z,21.53
2023-05-21T01:03:05.243Z,21.50
2023-05-21T01:05:32.903Z,21.50
2023-05-21T01:08:00.620Z,21.48
2023-05-21T01:10:28.404Z,21.46
2023-05-21T01:12:58.419Z,21.47
2023-05-21T01:15:27.594Z,21.46
2023-05-21T01:17:56.176Z,21.46
2023-05-21T01:20:24.591Z,21.45
2023-05-21T01:22:54.333Z,21.44
2023-05-21T01:25:23.161Z,21.43
2023-05-21T01:27:51.678Z,21.42
2023-05-21T01:30:21.247Z,21.42
2023-05-21T01:33:04.674Z,21.41
2023-05-21T01:35:39.267Z,21.40
2023-05-21T01:38:39.097Z,21.40
2023-05-21T01:41:13.081Z,21.38
2023-05-21T01:43:43.812Z,21.36
2023-05-21T01:46:15.318Z,21.34
2023-05-21T01:48:44.001Z,21.34
2023-05-21T01:51:12.044Z,21.34
2023-05-21T01:53:41.001Z,21.32
2023-05-21T01:56:08.726Z,21.30
2023-05-21T01:58:35.778Z,21.30
2023-05-21T02:01:04.192Z,21.30
2023-05-21T02:03:31.746Z,21.30
2023-05-21T02:05:59.302Z,21.30
2023-05-21T02:08:27.678Z,21.29
2023-05-21T02:10:54.736Z,21.28
2023-05-21T02:13:25.804Z,21.27
2023-05-21T02:15:55.264Z,21.25
2023-05-21T02:18:22.748Z,21.24
2023-05-21T02:20:50.037Z,21.23
2023-05-21T02:23:17.141Z,21.24
2023-05-21T02:25:44.469Z,21.23
2023-05-21T02:28:13.081Z,21.22
2023-05-21T02:30:40.213Z,21.21
2023-05-21T02:33:09.486Z,21.20
2023-05-21T02:35:37.220Z,21.19
2023-05-21T02:38:04.595Z,21.18
2023-05-21T02:40:33.429Z,21.17
2023-05-21T02:43:00.797Z,21.16
2023-05-21T02:45:28.989Z,21.16
2023-05-21T02:47:56.194Z,21.15
2023-05-21T02:50:23.515Z,21.14
2023-05-21T02:52:50.835Z,21.13
2023-05-21T02:55:18.105Z,21.12
2023-05-21T02:57:45.265Z,21.11
2023-05-21T03:00:13.473Z,21.10
2023-05-21T03:02:41.122Z,21.10
2023-05-21T03:05:08.275Z,21.09
2023-05-21T03:07:35.561Z,21.09
2023-05-21T03:10:02.749Z,21.08
2023-05-21T03:12:29.778Z,21.06
2023-05-21T03:14:56.920Z,21.06
2023-05-21T03:17:24.505Z,21.05
2023-05-21T03:19:52.396Z,21.04
2023-05-21T03:22:20.320Z,21.04
2023-05-21T03:24:47.374Z,21.03
2023-05-21T03:27:14.530Z,21.02
2023-05-21T03:29:43.325Z,21.01
2023-05-21T03:32:10.894Z,21.01
2023-05-21T03:34:38.018Z,21.01
2023-05-21T03:37:05.324Z,21.00
2023-05-21T03:39:32.454Z,20.99
2023-05-21T03:41:59.485Z,20.99
2023-05-21T03:44:26.572Z,20.98
2023-05-21T03:46:53.739Z,20.98
2023-05-21T03:49:21.067Z,20.98
2023-05-21T03:51:48.075Z,20.97
2023-05-21T03:54:15.143Z,20.96
2023-05-21T03:56:42.232Z,20.95
2023-05-21T03:59:09.398Z,20.95
2023-05-21T04:01:36.654Z,20.94
2023-05-21T04:04:04.170Z,20.93
2023-05-21T04:06:31.674Z,20.92
2023-05-21T04:08:58.881Z,20.92
2023-05-21T04:11:26.524Z,20.91
2023-05-21T04:13:53.602Z,20.91
2023-05-21T04:16:21.074Z,20.93
2023-05-21T04:18:48.659Z,20.92
2023-05-21T04:21:16.762Z,20.94
2023-05-21T04:23:43.777Z,20.96
2023-05-21T04:26:12.915Z,20.96
2023-05-21T04:28:42.182Z,20.95
2023-05-21T04:31:09.351Z,20.95
2023-05-21T04:33:36.512Z,21.00
2023-05-21T04:36:04.025Z,21.03
2023-05-21T04:38:31.320Z,21.08
2023-05-21T04:40:58.985Z,21.10
2023-05-21T04:43:26.772Z,21.15
2023-05-21T04:45:55.196Z,21.18
2023-05-21T04:48:24.882Z,21.21
2023-05-21T04:50:53.873Z,21.23
2023-05-21T04:53:21.066Z,21.22
2023-05-21T04:55:48.164Z,21.20
2023-05-21T04:58:18.685Z,21.21
2023-05-21T05:00:51.231Z,21.21
2023-05-21T05:03:18.843Z,21.24
2023-05-21T05:05:46.650Z,21.25
2023-05-21T05:08:15.817Z,21.26
2023-05-21T05:10:43.528Z,21.28
2023-05-21T05:13:10.704Z,21.29
2023-05-21T05:15:38.079Z,21.30
2023-05-21T05:18:09.006Z,21.31
2023-05-21T05:20:36.387Z,21.30
2023-05-21T05:23:03.533Z,21.31
2023-05-21T05:25:30.596Z,21.31
2023-05-21T05:27:57.652Z,21.30
2023-05-21T05:30:24.798Z,21.30
2023-05-21T05:32:52.033Z,21.30
2023-05-21T05:35:19.220Z,21.30
2023-05-21T05:37:46.387Z,21.31
2023-05-21T05:40:13.633Z,21.31
2023-05-21T05:42:40.896Z,21.31
2023-05-21T05:45:08.528Z,21.31
2023-05-21T05:47:35.804Z,21.33
2023-05-21T05:50:02.906Z,21.33
2023-05-21T05:52:30.765Z,21.31
2023-05-21T05:54:57.942Z,21.28
2023-05-21T05:57:25.066Z,21.26
2023-05-21T05:59:52.501Z,21.24
2023-05-21T06:02:19.935Z,21.22
2023-05-21T06:04:47.018Z,21.20
2023-05-21T06:07:14.068Z,21.18
2023-05-21T06:09:41.275Z,21.14
2023-05-21T06:12:09.544Z,21.13
2023-05-21T06:14:38.392Z,21.10
2023-05-21T06:17:05.680Z,21.09
2023-05-21T06:19:32.966Z,21.05
2023-05-21T06:22:00.268Z,21.05
2023-05-21T06:24:27.365Z,21.02
2023-05-21T06:26:54.424Z,20.99
2023-05-21T06:29:21.972Z,20.98
2023-05-21T06:31:49.211Z,20.96
2023-05-21T06:34:16.322Z,20.94
2023-05-21T06:36:43.510Z,20.93
2023-05-21T06:39:10.558Z,20.91
2023-05-21T06:41:37.594Z,20.91
2023-05-21T06:44:05.715Z,20.90
2023-05-21T06:46:33.064Z,20.88
2023-05-21T06:49:01.722Z,20.87
2023-05-21T06:51:28.857Z,20.86
2023-05-21T06:53:56.137Z,20.85
2023-05-21T06:56:23.420Z,20.84
2023-05-21T06:58:50.648Z,20.84
2023-05-21T07:01:17.726Z,20.83
2023-05-21T07:03:45.087Z,20.83
2023-05-21T07:06:12.200Z,20.85
2023-05-21T07:08:39.319Z,20.85
2023-05-21T07:11:06.338Z,20.88
2023-05-21T07:13:33.332Z,20.91
2023-05-21T07:16:00.668Z,20.94
2023-05-21T07:18:28.101Z,20.98
2023-05-21T07:20:55.261Z,20.99
2023-05-21T07:23:22.505Z,20.99
2023-05-21T07:25:49.553Z,21.01
2023-05-21T07:28:16.781Z,21.04
2023-05-21T07:30:44.052Z,21.05
2023-05-21T07:33:12.891Z,21.08
2023-05-21T07:35:40.107Z,21.11
2023-05-21T07:38:07.113Z,21.12
2023-05-21T07:40:34.226Z,21.11
2023-05-21T07:43:01.240Z,21.13
2023-05-21T07:45:28.332Z,21.15
2023-05-21T07:47:55.419Z,21.17
2023-05-21T07:50:22.644Z,21.18
2023-05-21T07:52:49.824Z,21.21
2023-05-21T07:55:17.419Z,21.22
2023-05-21T07:57:45.559Z,21.25
2023-05-21T08:00:14.403Z,21.25
2023-05-21T08:02:41.610Z,21.26
2023-05-21T08:05:10.873Z,21.23
2023-05-21T08:07:38.956Z,21.24
2023-05-21T08:19:24.702Z,21.17
2023-05-21T08:21:52.970Z,21.49
2023-05-21T08:24:20.526Z,21.84
2023-05-21T08:26:49.756Z,22.15
2023-05-21T08:29:16.875Z,22.40
2023-05-21T08:31:43.953Z,22.62
2023-05-21T08:34:10.978Z,22.80
2023-05-21T08:36:38.451Z,22.94
2023-05-21T08:39:05.309Z,23.09
2023-05-21T08:41:35.658Z,23.21
2023-05-21T08:44:03.564Z,23.32
2023-05-21T08:46:35.004Z,23.41
2023-05-21T08:49:03.012Z,23.53
2023-05-21T08:51:31.511Z,23.62
2023-05-21T08:54:00.158Z,23.73
2023-05-21T08:56:27.815Z,23.79
2023-05-21T08:58:56.051Z,23.88
2023-05-21T09:01:24.879Z,23.94
2023-05-21T09:04:04.879Z,24.01
2023-05-21T09:06:36.805Z,24.07
2023-05-21T09:09:11.731Z,24.09
2023-05-21T09:11:38.629Z,24.14
2023-05-21T09:14:05.826Z,24.19
2023-05-21T09:16:32.884Z,24.25
2023-05-21T09:19:01.116Z,24.32
2023-05-21T09:21:31.615Z,24.37
2023-05-21T09:24:00.121Z,24.43
2023-05-21T09:26:27.430Z,24.49
2023-05-21T09:29:00.231Z,24.54
2023-05-21T09:31:29.502Z,24.58
2023-05-21T09:33:56.594Z,24.61
2023-05-21T09:36:24.169Z,24.63
2023-05-21T09:38:52.289Z,24.64
2023-05-21T09:41:21.562Z,24.67
2023-05-21T09:43:49.606Z,24.69
2023-05-21T09:46:20.745Z,24.72
2023-05-21T09:48:47.737Z,24.73
2023-05-21T09:51:16.254Z,24.75
2023-05-21T09:54:01.536Z,24.76
2023-05-21T09:56:32.730Z,24.75
2023-05-21T09:59:04.488Z,24.76
2023-05-21T10:01:36.156Z,24.75
2023-05-21T10:04:08.306Z,24.76
2023-05-21T10:06:43.272Z,24.76
2023-05-21T10:09:11.780Z,24.76
2023-05-21T10:11:43.672Z,24.76
2023-05-21T10:14:32.538Z,24.77
2023-05-21T10:17:00.914Z,24.77
2023-05-21T10:19:30.630Z,24.77
2023-05-21T10:21:58.121Z,24.76
2023-05-21T10:24:26.483Z,24.75
2023-05-21T10:26:53.740Z,24.76
2023-05-21T10:29:23.194Z,24.75
2023-05-21T10:31:53.078Z,24.76
2023-05-21T10:34:21.409Z,24.75
2023-05-21T10:36:49.641Z,24.73
2023-05-21T10:39:19.938Z,24.73
2023-05-21T10:42:13.802Z,24.73
2023-05-21T10:45:05.001Z,24.72
2023-05-21T10:48:10.160Z,24.73
2023-05-21T10:51:15.104Z,24.73
2023-05-21T10:54:36.483Z,24.73
2023-05-21T10:57:38.017Z,24.73
2023-05-21T11:00:06.576Z,24.70
2023-05-21T11:02:33.948Z,24.72
2023-05-21T11:05:02.337Z,24.71
2023-05-21T11:07:56.859Z,24.72
2023-05-21T11:10:41.169Z,24.71
2023-05-21T11:13:12.327Z,24.72
2023-05-21T11:15:57.803Z,24.73
2023-05-21T11:18:30.698Z,24.72
2023-05-21T11:21:07.790Z,24.72
2023-05-21T11:23:54.022Z,24.72
2023-05-21T11:26:23.429Z,24.70
2023-05-21T11:29:06.185Z,24.72
2023-05-21T11:31:41.365Z,24.71
2023-05-21T11:34:11.476Z,24.72
2023-05-21T11:36:39.729Z,24.72
2023-05-21T11:39:24.031Z,24.75
2023-05-21T11:41:59.820Z,24.75
2023-05-21T11:44:44.532Z,24.76
2023-05-21T11:47:15.110Z,24.75
2023-05-21T11:49:42.728Z,24.75
2023-05-21T11:52:11.412Z,24.77
2023-05-21T11:54:41.163Z,24.78
2023-05-21T11:57:09.238Z,24.80
2023-05-21T11:59:37.185Z,24.82
2023-05-21T12:02:05.034Z,24.82
2023-05-21T12:04:32.988Z,24.85
2023-05-21T12:07:05.228Z,24.87
2023-05-21T12:09:32.158Z,24.90
2023-05-21T12:12:01.822Z,24.95
2023-05-21T12:14:28.771Z,24.99
2023-05-21T12:16:55.910Z,25.01
2023-05-21T12:19:23.028Z,25.04
2023-05-21T12:21:50.497Z,25.07
2023-05-21T12:24:17.422Z,25.10
2023-05-21T12:26:48.247Z,25.11
2023-05-21T12:29:15.268Z,25.13
2023-05-21T12:31:49.700Z,25.12
2023-05-21T12:34:19.109Z,25.13
2023-05-21T12:36:48.519Z,25.14
2023-05-21T12:39:15.702Z,25.16
2023-05-21T12:41:44.135Z,25.17
2023-05-21T12:44:12.314Z,25.18
2023-05-21T12:46:39.382Z,25.19
2023-05-21T12:49:06.361Z,25.20
2023-05-21T12:51:42.718Z,25.22
2023-05-21T12:54:13.939Z,25.22
2023-05-21T12:56:46.007Z,25.25
2023-05-21T12:59:15.766Z,25.24
2023-05-21T13:01:42.758Z,25.26
2023-05-21T13:04:10.115Z,25.28
2023-05-21T13:06:46.249Z,25.30
2023-05-21T13:09:13.192Z,25.32
2023-05-21T13:11:40.118Z,25.35
2023-05-21T13:14:07.161Z,25.38
2023-05-21T13:16:34.122Z,25.40
2023-05-21T13:19:01.213Z,25.43
2023-05-21T13:21:28.324Z,25.45
2023-05-21T13:23:55.276Z,25.48
2023-05-21T13:26:22.344Z,25.49
2023-05-21T13:28:49.299Z,25.51
2023-05-21T13:31:16.478Z,25.54
2023-05-21T13:33:43.750Z,25.56
2023-05-21T13:36:10.902Z,25.57
2023-05-21T13:38:37.874Z,25.57
2023-05-21T13:41:04.841Z,25.59
2023-05-21T13:43:32.870Z,25.60
2023-05-21T13:45:59.828Z,25.61
2023-05-21T13:48:27.027Z,25.64
2023-05-21T13:50:53.978Z,25.66
2023-05-21T13:53:21.993Z,25.69
2023-05-21T13:55:49.030Z,25.69
2023-05-21T13:58:16.230Z,25.71
2023-05-21T14:00:43.364Z,25.72
2023-05-21T14:03:11.622Z,25.74
2023-05-21T14:05:38.619Z,25.75
2023-05-21T14:08:05.826Z,25.76
2023-05-21T14:10:32.760Z,25.80
2023-05-21T14:13:11.222Z,25.81
2023-05-21T14:15:46.493Z,25.83
2023-05-21T14:18:13.425Z,25.84
2023-05-21T14:20:40.378Z,25.85
2023-05-21T14:23:07.437Z,25.86
2023-05-21T14:25:34.514Z,25.88
2023-05-21T14:28:01.505Z,25.90
2023-05-21T14:30:28.574Z,25.91
2023-05-21T14:32:57.863Z,25.92
2023-05-21T14:35:25.197Z,25.93
2023-05-21T14:37:53.907Z,25.94
2023-05-21T14:40:21.132Z,25.97
2023-05-21T14:42:48.203Z,26.00
2023-05-21T14:45:19.185Z,26.01
2023-05-21T14:47:47.927Z,26.02
2023-05-21T14:50:16.219Z,26.04
2023-05-21T14:52:43.354Z,26.06
2023-05-21T14:55:11.243Z,26.09
2023-05-21T14:57:38.783Z,26.10
2023-05-21T15:00:06.508Z,26.11
2023-05-21T15:02:33.608Z,26.13
2023-05-21T15:05:00.655Z,26.14
2023-05-21T15:07:27.572Z,26.15
2023-05-21T15:09:54.554Z,26.17
2023-05-21T15:12:21.526Z,26.20
2023-05-21T15:14:48.567Z,26.21
2023-05-21T15:17:15.919Z,26.24
2023-05-21T15:19:42.898Z,26.25
2023-05-21T15:22:09.911Z,26.27
2023-05-21T15:24:36.903Z,26.28
2023-05-21T15:27:05.153Z,26.29
2023-05-21T15:29:32.137Z,26.31
2023-05-21T15:32:00.207Z,26.34
2023-05-21T15:34:27.218Z,26.36
2023-05-21T15:36:54.245Z,26.38
2023-05-21T15:39:21.219Z,26.39
2023-05-21T15:41:48.347Z,26.40
2023-05-21T15:44:15.589Z,26.41
2023-05-21T15:46:42.886Z,26.42
2023-05-21T15:49:09.956Z,26.45
2023-05-21T15:51:37.054Z,26.45
2023-05-21T15:54:04.326Z,26.46
2023-05-21T15:56:31.261Z,26.47
2023-05-21T15:59:01.411Z,26.47
2023-05-21T16:01:28.700Z,26.47
2023-05-21T16:03:56.007Z,26.49
2023-05-21T16:06:23.209Z,26.49
2023-05-21T16:08:50.136Z,26.50
2023-05-21T16:11:17.155Z,26.50
2023-05-21T16:13:44.116Z,26.50
2023-05-21T16:16:11.040Z,26.52
2023-05-21T16:18:38.543Z,26.52
2023-05-21T16:21:05.569Z,26.53
2023-05-21T16:23:34.257Z,26.53
2023-05-21T16:26:01.177Z,26.54
2023-05-21T16:28:29.718Z,26.55
2023-05-21T16:30:56.625Z,26.53
2023-05-21T16:33:23.637Z,26.56
2023-05-21T16:35:50.763Z,26.55
2023-05-21T16:38:17.999Z,26.57
2023-05-21T16:40:45.955Z,26.58
2023-05-21T16:43:12.966Z,26.59
2023-05-21T16:45:41.686Z,26.62
2023-05-21T16:48:09.624Z,26.62
2023-05-21T16:50:36.913Z,26.63
2023-05-21T16:53:06.432Z,26.65
2023-05-21T16:55:34.693Z,26.67
2023-05-21T16:58:03.537Z,26.67
2023-05-21T17:00:30.686Z,26.68
2023-05-21T17:02:58.373Z,26.68
2023-05-21T17:05:26.510Z,26.67
2023-05-21T17:07:53.449Z,26.67
2023-05-21T17:10:20.417Z,26.67
2023-05-21T17:12:47.409Z,26.67
2023-05-21T17:15:14.399Z,26.68
2023-05-21T17:17:41.460Z,26.69
2023-05-21T17:20:09.142Z,26.71
2023-05-21T17:22:37.235Z,26.70
2023-05-21T17:25:04.503Z,26.70
2023-05-21T17:27:31.400Z,26.70
2023-05-21T17:29:58.301Z,26.72
2023-05-21T17:32:25.302Z,26.71
2023-05-21T17:34:53.188Z,26.72
2023-05-21T17:37:20.069Z,26.72
2023-05-21T17:39:47.016Z,26.74
2023-05-21T17:42:14.107Z,26.73
2023-05-21T17:44:41.042Z,26.74
2023-05-21T17:47:08.308Z,26.76
2023-05-21T17:49:35.716Z,26.76
2023-05-21T17:52:04.732Z,26.76
2023-05-21T17:54:31.633Z,26.76
2023-05-21T17:56:58.675Z,26.77
2023-05-21T17:59:25.613Z,26.78
2023-05-21T18:01:52.711Z,26.80
2023-05-21T18:04:19.773Z,26.82
2023-05-21T18:06:46.793Z,26.83
2023-05-21T18:09:15.727Z,26.84
2023-05-21T18:11:44.721Z,26.84
2023-05-21T18:14:11.835Z,26.83
2023-05-21T18:16:38.886Z,26.84
2023-05-21T18:19:06.805Z,26.83
2023-05-21T18:21:35.615Z,26.82
2023-05-21T18:24:02.993Z,26.82
2023-05-21T18:26:30.391Z,26.82
2023-05-21T18:28:58.303Z,26.81
2023-05-21T18:31:25.730Z,26.82
2023-05-21T18:33:52.681Z,26.81
2023-05-21T18:36:19.611Z,26.80
2023-05-21T18:38:46.824Z,26.80
2023-05-21T18:41:14.225Z,26.79
2023-05-21T18:43:41.955Z,26.80
2023-05-21T18:46:08.982Z,26.79
2023-05-21T18:48:36.101Z,26.78
2023-05-21T18:51:03.064Z,26.78
2023-05-21T18:53:29.995Z,26.78
2023-05-21T18:55:56.973Z,26.78
2023-05-21T18:58:23.876Z,26.77
2023-05-21T19:00:51.444Z,26.77
2023-05-21T19:03:18.377Z,26.75
2023-05-21T19:05:45.466Z,26.75
2023-05-21T19:08:12.493Z,26.76
2023-05-21T19:10:39.605Z,26.75
2023-05-21T19:13:07.020Z,26.76
2023-05-21T19:15:34.095Z,26.76
2023-05-21T19:18:01.939Z,26.76
2023-05-21T19:20:29.259Z,26.77
2023-05-21T19:22:56.282Z,26.76
2023-05-21T19:25:23.614Z,26.76
2023-05-21T19:27:50.758Z,26.77
2023-05-21T19:30:17.784Z,26.78
2023-05-21T19:32:44.821Z,26.77
2023-05-21T19:35:12.172Z,26.77
2023-05-21T19:37:39.151Z,26.78
2023-05-21T19:40:07.549Z,26.78
2023-05-21T19:42:34.459Z,26.78
2023-05-21T19:45:01.416Z,26.77
2023-05-21T19:47:28.406Z,26.76
2023-05-21T19:49:56.550Z,26.76
2023-05-21T19:52:23.770Z,26.77
2023-05-21T19:54:50.690Z,26.76
2023-05-21T19:57:17.653Z,26.75
2023-05-21T19:59:44.587Z,26.75
2023-05-21T20:02:17.076Z,26.74
2023-05-21T20:04:44.039Z,26.73
2023-05-21T20:07:11.122Z,26.72
2023-05-21T20:09:38.828Z,26.71
2023-05-21T20:12:06.312Z,26.70
2023-05-21T20:14:34.476Z,26.69
2023-05-21T20:17:01.864Z,26.68
2023-05-21T20:19:31.484Z,26.66
2023-05-21T20:21:59.581Z,26.65
2023-05-21T20:24:26.459Z,26.65
2023-05-21T20:26:54.943Z,26.63
2023-05-21T20:29:21.903Z,26.62
2023-05-21T20:31:48.843Z,26.60
2023-05-21T20:34:17.690Z,26.59
2023-05-21T20:36:44.684Z,26.57
2023-05-21T20:39:12.250Z,26.55
2023-05-21T20:41:39.736Z,26.53
2023-05-21T20:44:07.109Z,26.52
2023-05-21T20:46:38.642Z,26.51
2023-05-21T20:49:06.374Z,26.51
2023-05-21T20:51:33.689Z,26.50
2023-05-21T20:54:00.813Z,26.49
2023-05-21T20:56:41.005Z,26.49
2023-05-21T20:59:10.877Z,26.48
2023-05-21T21:01:39.305Z,26.48
2023-05-21T21:04:06.623Z,26.47
2023-05-21T21:06:34.026Z,26.48
2023-05-21T21:09:00.977Z,26.46
2023-05-21T21:11:27.940Z,26.44
2023-05-21T21:13:54.833Z,26.43
2023-05-21T21:16:21.804Z,26.43
2023-05-21T21:18:48.804Z,26.42
2023-05-21T21:21:15.850Z,26.42
2023-05-21T21:23:42.796Z,26.41
2023-05-21T21:26:09.773Z,26.41
2023-05-21T21:28:36.755Z,26.40
2023-05-21T21:31:03.590Z,26.38
2023-05-21T21:33:30.593Z,26.36
2023-05-21T21:35:57.593Z,26.35
2023-05-21T21:38:24.564Z,26.33
2023-05-21T21:40:51.545Z,26.32
2023-05-21T21:43:18.439Z,26.30
2023-05-21T21:45:45.594Z,26.29
2023-05-21T21:48:12.843Z,26.29
2023-05-21T21:50:39.971Z,26.26
2023-05-21T21:53:07.195Z,26.25
2023-05-21T21:55:34.090Z,26.22
2023-05-21T21:58:01.100Z,26.24
2023-05-21T22:00:28.074Z,26.22
2023-05-21T22:02:55.457Z,26.21
2023-05-21T22:05:22.683Z,26.19
2023-05-21T22:07:51.406Z,26.17
2023-05-21T22:10:18.839Z,26.16
2023-05-21T22:12:46.404Z,26.13
2023-05-21T22:15:27.652Z,26.14
2023-05-21T22:17:55.378Z,26.12
2023-05-21T22:20:22.976Z,26.11
2023-05-21T22:22:50.187Z,26.11
2023-05-21T22:25:17.320Z,26.13
2023-05-21T22:27:44.602Z,26.12
2023-05-21T22:30:12.187Z,26.13
2023-05-21T22:32:39.656Z,26.12
2023-05-21T22:35:07.240Z,26.11
2023-05-21T22:37:34.344Z,26.12
2023-05-21T22:40:01.436Z,26.13
2023-05-21T22:42:28.428Z,26.11
2023-05-21T22:44:55.602Z,26.10
2023-05-21T22:47:24.049Z,26.06
2023-05-21T22:49:53.871Z,26.06
2023-05-21T22:52:22.047Z,26.02
2023-05-21T22:54:49.690Z,25.99
2023-05-21T22:57:16.581Z,25.97
2023-05-21T22:59:43.713Z,25.96
2023-05-21T23:02:11.920Z,25.95
2023-05-21T23:04:43.792Z,25.93
2023-05-21T23:07:11.999Z,25.90
2023-05-21T23:09:39.091Z,25.89
2023-05-21T23:12:06.608Z,25.86
2023-05-21T23:14:34.150Z,25.84
2023-05-21T23:17:05.834Z,25.82
2023-05-21T23:19:33.180Z,25.80
2023-05-21T23:22:00.641Z,25.80
2023-05-21T23:24:29.813Z,25.78
2023-05-21T23:27:02.263Z,25.78
2023-05-21T23:29:30.536Z,25.78
2023-05-21T23:31:58.392Z,25.76
2023-05-21T23:34:25.934Z,25.75
2023-05-21T23:36:52.990Z,25.73
2023-05-21T23:39:19.946Z,25.72
2023-05-21T23:41:47.089Z,25.71
2023-05-21T23:44:15.628Z,25.69
2023-05-21T23:46:45.993Z,25.69
2023-05-21T23:49:12.898Z,25.67
2023-05-21T23:51:39.936Z,25.67
2023-05-21T23:54:08.345Z,25.67
2023-05-21T23:56:35.414Z,25.66
2023-05-21T23:59:02.597Z,25.66
